createdAt,value
2023-03-18T00:00:51.392Z,11.13
2023-03-18T00:03:19.341Z,12.30
2023-03-18T00:05:47.320Z,11.07
2023-03-18T00:08:15.290Z,9.70
2023-03-18T00:10:43.909Z,8.70
2023-03-18T00:13:12.110Z,9.97
2023-03-18T00:15:41.483Z,11.57
2023-03-18T00:18:09.716Z,9.37
2023-03-18T00:20:40.274Z,12.57
2023-03-18T00:23:08.984Z,12.03
2023-03-18T00:25:37.760Z,8.80
2023-03-18T00:28:06.445Z,10.07
2023-03-18T00:30:34.910Z,10.10
2023-03-18T00:33:04.244Z,10.80
2023-03-18T00:35:32.397Z,7.83
2023-03-18T00:38:00.450Z,11.87
2023-03-18T00:40:42.856Z,12.60
2023-03-18T00:43:12.706Z,12.03
2023-03-18T00:45:42.730Z,10.10
2023-03-18T00:48:12.127Z,11.70
2023-03-18T00:50:40.088Z,9.60
2023-03-18T00:53:08.332Z,13.83
2023-03-18T00:55:36.422Z,11.60
2023-03-18T00:58:04.370Z,9.93
2023-03-18T01:00:32.566Z,10.27
2023-03-18T01:03:01.428Z,14.07
2023-03-18T01:05:38.168Z,12.63
2023-03-18T01:08:06.661Z,14.77
2023-03-18T01:10:34.658Z,19.27
2023-03-18T01:13:04.008Z,14.70
2023-03-18T01:15:31.931Z,12.53
2023-03-18T01:17:59.882Z,15.07
2023-03-18T01:20:29.191Z,14.93
2023-03-18T01:23:00.768Z,16.40
2023-03-18T01:25:28.888Z,14.20
2023-03-18T01:27:56.911Z,13.67
2023-03-18T01:30:26.293Z,13.50
2023-03-18T01:32:55.547Z,15.70
2023-03-18T01:35:24.176Z,14.70
2023-03-18T01:37:53.268Z,14.83
2023-03-18T01:40:23.800Z,13.50
2023-03-18T01:42:57.260Z,17.70
2023-03-18T01:45:29.202Z,12.87
2023-03-18T01:47:59.860Z,15.43
2023-03-18T01:50:32.303Z,15.90
2023-03-18T01:53:04.086Z,15.23
2023-03-18T01:55:34.122Z,15.50
2023-03-18T01:58:06.084Z,14.37
2023-03-18T02:00:36.106Z,15.53
2023-03-18T02:03:06.180Z,13.17
2023-03-18T02:05:35.815Z,12.90
2023-03-18T02:08:03.836Z,15.10
2023-03-18T02:10:34.306Z,13.70
2023-03-18T02:13:06.740Z,17.30
2023-03-18T02:15:45.734Z,16.97
2023-03-18T02:18:17.881Z,16.90
2023-03-18T02:21:01.737Z,16.17
2023-03-18T02:23:42.637Z,12.63
2023-03-18T02:26:22.755Z,14.10
2023-03-18T02:28:56.248Z,15.93
2023-03-18T02:31:24.857Z,14.53
2023-03-18T02:33:53.753Z,14.57
2023-03-18T02:36:27.740Z,15.87
2023-03-18T02:39:00.197Z,15.03
2023-03-18T02:41:31.710Z,18.20
2023-03-18T02:44:01.722Z,16.57
2023-03-18T02:46:43.988Z,15.40
2023-03-18T02:49:11.965Z,14.87
2023-03-18T02:51:41.884Z,18.67
2023-03-18T02:54:13.783Z,16.20
2023-03-18T02:56:43.543Z,15.73
2023-03-18T02:59:14.307Z,15.87
2023-03-18T03:01:44.501Z,20.27
2023-03-18T03:04:13.670Z,17.17
2023-03-18T03:06:42.634Z,17.27
2023-03-18T03:09:15.298Z,16.67
2023-03-18T03:11:44.974Z,17.73
2023-03-18T03:14:19.386Z,17.30
2023-03-18T03:16:50.431Z,16.40
2023-03-18T03:19:18.477Z,15.80
2023-03-18T03:21:46.786Z,19.40
2023-03-18T03:24:14.762Z,16.27
2023-03-18T03:26:42.666Z,17.40
2023-03-18T03:29:12.590Z,18.40
2023-03-18T03:31:42.085Z,18.40
2023-03-18T03:34:10.663Z,21.93
2023-03-18T03:36:39.616Z,16.77
2023-03-18T03:39:07.634Z,18.13
2023-03-18T03:41:36.594Z,16.93
2023-03-18T03:44:04.725Z,15.50
2023-03-18T03:46:32.848Z,19.03
2023-03-18T03:49:02.332Z,19.00
2023-03-18T03:51:30.361Z,18.33
2023-03-18T03:53:58.880Z,18.90
2023-03-18T03:56:27.105Z,19.33
2023-03-18T03:58:55.041Z,17.37
2023-03-18T04:01:27.227Z,16.40
2023-03-18T04:03:57.325Z,17.80
2023-03-18T04:06:27.144Z,18.50
2023-03-18T04:09:01.965Z,15.50
2023-03-18T04:11:29.971Z,19.97
2023-03-18T04:13:58.198Z,16.80
2023-03-18T04:16:28.418Z,15.87
2023-03-18T04:18:56.858Z,17.60
2023-03-18T04:21:27.148Z,17.03
2023-03-18T04:23:57.142Z,19.73
2023-03-18T04:26:25.991Z,15.77
2023-03-18T04:28:54.824Z,17.53
2023-03-18T04:31:24.487Z,17.93
2023-03-18T04:33:52.588Z,17.83
2023-03-18T04:36:21.071Z,16.90
2023-03-18T04:38:50.390Z,13.97
2023-03-18T04:41:18.633Z,15.43
2023-03-18T04:43:46.719Z,21.80
2023-03-18T04:46:14.921Z,15.77
2023-03-18T04:48:45.284Z,16.50
2023-03-18T04:51:14.137Z,17.07
2023-03-18T04:53:43.158Z,16.23
2023-03-18T04:56:13.682Z,17.50
2023-03-18T04:58:48.148Z,14.50
2023-03-18T05:01:20.811Z,16.67
2023-03-18T05:03:49.190Z,17.73
2023-03-18T05:06:23.705Z,14.27
2023-03-18T05:09:01.917Z,17.83
2023-03-18T05:11:35.374Z,15.00
2023-03-18T05:14:15.577Z,17.33
2023-03-18T05:16:47.248Z,17.60
2023-03-18T05:19:15.639Z,16.43
2023-03-18T05:21:50.765Z,17.47
2023-03-18T05:24:20.090Z,15.37
2023-03-18T05:26:49.558Z,15.10
2023-03-18T05:29:19.176Z,16.97
2023-03-18T05:31:58.671Z,14.37
2023-03-18T05:34:27.888Z,17.47
2023-03-18T05:36:57.643Z,15.27
2023-03-18T05:39:26.640Z,15.50
2023-03-18T05:41:56.008Z,15.60
2023-03-18T05:44:28.148Z,16.10
2023-03-18T05:46:59.025Z,15.40
2023-03-18T05:49:51.820Z,14.70
2023-03-18T05:52:24.573Z,16.03
2023-03-18T05:54:55.640Z,16.10
2023-03-18T05:57:29.662Z,15.17
2023-03-18T06:00:01.693Z,13.40
2023-03-18T06:02:33.255Z,14.87
2023-03-18T06:05:01.516Z,16.40
2023-03-18T06:07:30.508Z,15.97
2023-03-18T06:09:58.700Z,14.97
2023-03-18T06:12:28.436Z,17.20
2023-03-18T06:14:58.156Z,16.07
2023-03-18T06:17:27.612Z,17.23
2023-03-18T06:19:56.886Z,17.40
2023-03-18T06:22:25.926Z,16.37
2023-03-18T06:24:53.876Z,16.63
2023-03-18T06:27:22.318Z,16.17
2023-03-18T06:29:56.969Z,17.70
2023-03-18T06:32:24.981Z,16.93
2023-03-18T06:34:53.045Z,17.70
2023-03-18T06:37:21.616Z,16.07
2023-03-18T06:39:50.744Z,16.83
2023-03-18T06:42:19.118Z,16.67
2023-03-18T06:45:12.421Z,14.73
2023-03-18T06:47:51.913Z,17.00
2023-03-18T06:50:20.594Z,15.33
2023-03-18T06:52:49.359Z,18.87
2023-03-18T06:55:20.314Z,18.60
2023-03-18T06:57:48.643Z,18.87
2023-03-18T07:00:22.821Z,15.40
2023-03-18T07:02:51.159Z,19.20
2023-03-18T07:05:20.785Z,15.27
2023-03-18T07:07:49.466Z,17.00
2023-03-18T07:10:21.679Z,19.57
2023-03-18T07:12:52.212Z,15.37
2023-03-18T07:15:23.329Z,18.80
2023-03-18T07:17:54.678Z,15.67
2023-03-18T07:20:24.058Z,17.30
2023-03-18T07:22:52.452Z,16.80
2023-03-18T07:25:22.859Z,17.77
2023-03-18T07:27:52.033Z,16.50
2023-03-18T07:30:21.692Z,16.47
2023-03-18T07:32:51.203Z,15.07
2023-03-18T07:35:19.527Z,16.30
2023-03-18T07:37:47.413Z,17.23
2023-03-18T07:40:16.738Z,16.77
2023-03-18T07:42:44.722Z,14.40
2023-03-18T07:45:13.834Z,15.83
2023-03-18T07:47:43.717Z,13.97
2023-03-18T07:50:13.503Z,14.60
2023-03-18T07:52:41.912Z,15.20
2023-03-18T07:55:10.715Z,13.60
2023-03-18T07:57:38.657Z,12.67
2023-03-18T08:00:08.504Z,14.23
2023-03-18T08:02:43.566Z,11.33
2023-03-18T08:05:11.886Z,13.20
2023-03-18T08:07:39.880Z,13.23
2023-03-18T08:10:09.913Z,13.03
2023-03-18T08:12:51.508Z,11.30
2023-03-18T08:15:20.863Z,11.77
2023-03-18T08:17:50.159Z,12.53
2023-03-18T08:20:18.361Z,12.13
2023-03-18T08:22:46.673Z,11.13
2023-03-18T08:25:14.700Z,9.90
2023-03-18T08:27:42.696Z,10.70
2023-03-18T08:30:11.790Z,10.27
2023-03-18T08:32:39.710Z,8.93
2023-03-18T08:35:11.145Z,11.20
2023-03-18T08:37:39.353Z,9.60
2023-03-18T08:40:09.728Z,8.87
2023-03-18T08:42:37.695Z,10.37
2023-03-18T08:45:06.446Z,10.47
2023-03-18T08:47:34.469Z,9.20
2023-03-18T08:50:02.901Z,8.83
2023-03-18T08:52:32.308Z,8.27
2023-03-18T08:55:00.287Z,8.53
2023-03-18T08:57:28.308Z,9.20
2023-03-18T08:59:56.241Z,8.13
2023-03-18T09:02:24.826Z,7.90
2023-03-18T09:04:54.484Z,8.23
2023-03-18T09:07:22.768Z,7.70
2023-03-18T09:09:52.020Z,7.20
2023-03-18T09:12:20.050Z,7.17
2023-03-18T09:14:48.122Z,6.73
2023-03-18T09:17:16.036Z,8.37
2023-03-18T09:19:43.945Z,6.43
2023-03-18T09:22:12.287Z,6.33
2023-03-18T09:24:40.626Z,6.77
2023-03-18T09:27:10.327Z,6.63
2023-03-18T09:29:38.323Z,5.60
2023-03-18T09:32:06.791Z,5.80
2023-03-18T09:34:34.749Z,6.57
2023-03-18T09:37:02.708Z,5.30
2023-03-18T09:39:30.660Z,7.57
2023-03-18T09:42:17.977Z,6.97
2023-03-18T09:44:46.181Z,4.83
2023-03-18T09:47:25.465Z,6.83
2023-03-18T09:50:05.409Z,4.93
2023-03-18T09:52:37.736Z,5.67
2023-03-18T09:55:12.529Z,6.93
2023-03-18T09:57:45.904Z,6.53
2023-03-18T10:00:21.400Z,5.87
2023-03-18T10:02:54.185Z,5.33
2023-03-18T10:05:26.609Z,4.67
2023-03-18T10:07:58.412Z,8.53
2023-03-18T10:10:30.527Z,5.30
2023-03-18T10:13:06.920Z,5.83
2023-03-18T10:15:41.383Z,5.37
2023-03-18T10:18:15.205Z,5.27
2023-03-18T10:20:53.461Z,6.07
2023-03-18T10:23:34.929Z,4.63
2023-03-18T10:26:06.877Z,4.33
2023-03-18T10:28:57.418Z,5.33
2023-03-18T10:31:37.911Z,4.57
2023-03-18T10:34:09.515Z,5.23
2023-03-18T10:36:43.661Z,5.43
2023-03-18T10:39:16.320Z,3.30
2023-03-18T10:41:49.938Z,5.33
2023-03-18T10:44:23.564Z,5.67
2023-03-18T10:47:00.214Z,5.27
2023-03-18T10:49:31.760Z,4.63
2023-03-18T10:52:06.039Z,5.37
2023-03-18T10:54:38.922Z,4.63
2023-03-18T10:57:07.042Z,5.07
2023-03-18T10:59:36.413Z,5.40
2023-03-18T11:02:07.899Z,5.03
2023-03-18T11:04:42.373Z,4.70
2023-03-18T11:07:18.640Z,5.40
2023-03-18T11:09:47.398Z,4.70
2023-03-18T11:12:19.332Z,2.77
2023-03-18T11:14:50.874Z,3.43
2023-03-18T11:17:27.347Z,5.37
2023-03-18T11:20:05.782Z,4.80
2023-03-18T11:22:35.099Z,2.40
2023-03-18T11:25:06.679Z,3.27
2023-03-18T11:27:39.472Z,3.60
2023-03-18T11:30:33.634Z,3.17
2023-03-18T11:33:16.241Z,4.60
2023-03-18T11:35:48.215Z,2.87
2023-03-18T11:38:18.991Z,3.53
2023-03-18T11:40:47.400Z,3.33
2023-03-18T11:43:20.507Z,2.60
2023-03-18T11:45:55.543Z,3.20
2023-03-18T11:48:31.360Z,3.57
2023-03-18T11:51:09.118Z,2.97
2023-03-18T11:53:48.773Z,5.00
2023-03-18T11:56:24.281Z,2.50
2023-03-18T11:59:09.339Z,2.80
2023-03-18T12:01:45.741Z,3.50
2023-03-18T12:04:52.382Z,4.03
2023-03-18T12:07:36.438Z,2.93
2023-03-18T12:10:19.697Z,2.70
2023-03-18T12:13:03.581Z,3.07
2023-03-18T12:15:42.663Z,3.63
2023-03-18T12:18:25.759Z,3.73
2023-03-18T12:20:54.951Z,3.40
2023-03-18T12:23:35.351Z,5.20
2023-03-18T12:26:07.217Z,2.77
2023-03-18T12:29:09.489Z,3.07
2023-03-18T12:31:57.231Z,2.40
2023-03-18T12:34:43.473Z,3.37
2023-03-18T12:37:24.793Z,3.77
2023-03-18T12:40:27.695Z,4.73
2023-03-18T12:43:14.135Z,3.67
2023-03-18T12:45:46.261Z,4.67
2023-03-18T12:48:17.689Z,3.83
2023-03-18T12:50:52.387Z,3.50
2023-03-18T12:53:25.814Z,3.03
2023-03-18T12:55:58.606Z,3.90
2023-03-18T12:58:29.404Z,2.03
2023-03-18T13:01:06.833Z,4.90
2023-03-18T13:03:37.758Z,3.73
2023-03-18T13:06:13.197Z,2.73
2023-03-18T13:09:00.656Z,2.23
2023-03-18T13:11:49.360Z,1.70
2023-03-18T13:14:25.804Z,4.17
2023-03-18T13:16:56.199Z,7.93
2023-03-18T13:19:24.258Z,3.60
2023-03-18T13:22:04.230Z,4.97
2023-03-18T13:24:53.998Z,7.37
2023-03-18T13:27:48.528Z,5.10
2023-03-18T13:30:25.702Z,2.50
2023-03-18T13:33:21.738Z,2.60
2023-03-18T13:36:20.395Z,3.13
2023-03-18T13:39:10.092Z,2.80
2023-03-18T13:42:02.556Z,4.53
2023-03-18T13:44:37.373Z,2.80
2023-03-18T13:47:09.144Z,2.17
2023-03-18T13:49:39.629Z,1.97
2023-03-18T13:52:25.310Z,3.10
2023-03-18T13:54:55.104Z,2.60
2023-03-18T13:57:47.942Z,2.80
2023-03-18T14:00:35.792Z,2.50
2023-03-18T14:03:14.148Z,3.13
2023-03-18T14:05:43.277Z,3.77
2023-03-18T14:08:38.243Z,3.20
2023-03-18T14:11:45.326Z,3.93
2023-03-18T14:14:58.273Z,3.77
2023-03-18T14:17:43.001Z,3.10
2023-03-18T14:20:24.943Z,3.43
2023-03-18T14:22:54.945Z,2.50
2023-03-18T14:25:42.955Z,4.00
2023-03-18T14:28:20.944Z,2.20
2023-03-18T14:30:57.104Z,3.50
2023-03-18T14:33:36.320Z,4.63
2023-03-18T14:36:09.796Z,2.87
2023-03-18T14:38:43.319Z,4.37
2023-03-18T14:41:28.638Z,5.17
2023-03-18T14:44:08.810Z,2.33
2023-03-18T14:46:42.830Z,2.43
2023-03-18T14:49:36.792Z,1.90
2023-03-18T14:52:14.396Z,3.13
2023-03-18T14:54:45.829Z,1.93
2023-03-18T14:57:14.220Z,3.17
2023-03-18T14:59:43.492Z,4.13
2023-03-18T15:02:23.096Z,2.33
2023-03-18T15:04:54.327Z,2.13
2023-03-18T15:07:26.399Z,3.43
2023-03-18T15:09:55.035Z,1.93
2023-03-18T15:12:30.548Z,3.10
2023-03-18T15:15:00.133Z,2.70
2023-03-18T15:17:28.368Z,2.97
2023-03-18T15:20:00.060Z,1.73
2023-03-18T15:22:30.837Z,2.27
2023-03-18T15:25:02.226Z,2.73
2023-03-18T15:27:32.970Z,3.37
2023-03-18T15:30:04.908Z,1.63
2023-03-18T15:32:34.394Z,2.90
2023-03-18T15:35:16.566Z,2.63
2023-03-18T15:37:45.922Z,2.30
2023-03-18T15:40:32.752Z,3.37
2023-03-18T15:43:06.497Z,2.70
2023-03-18T15:45:36.352Z,2.23
2023-03-18T15:48:09.081Z,2.67
2023-03-18T15:50:38.188Z,1.77
2023-03-18T15:53:18.801Z,2.63
2023-03-18T15:55:51.057Z,2.23
2023-03-18T15:58:28.268Z,2.40
2023-03-18T16:00:58.485Z,2.50
2023-03-18T16:03:31.516Z,3.23
2023-03-18T16:06:00.492Z,2.73
2023-03-18T16:08:28.589Z,2.67
2023-03-18T16:10:59.041Z,5.00
2023-03-18T16:13:29.682Z,2.07
2023-03-18T16:15:59.039Z,3.37
2023-03-18T16:18:27.286Z,3.03
2023-03-18T16:20:55.205Z,6.70
2023-03-18T16:23:23.142Z,2.57
2023-03-18T16:25:53.096Z,3.57
2023-03-18T16:28:23.304Z,2.23
2023-03-18T16:30:53.263Z,3.07
2023-03-18T16:33:23.938Z,3.13
2023-03-18T16:35:56.990Z,2.30
2023-03-18T16:38:25.524Z,2.87
2023-03-18T16:40:55.033Z,3.07
2023-03-18T16:43:27.174Z,2.57
2023-03-18T16:45:58.583Z,3.43
2023-03-18T16:48:28.959Z,2.67
2023-03-18T16:50:59.213Z,2.93
2023-03-18T16:53:31.610Z,2.17
2023-03-18T16:56:02.850Z,2.43
2023-03-18T16:58:34.992Z,1.60
2023-03-18T17:01:04.824Z,2.77
2023-03-18T17:03:34.713Z,3.93
2023-03-18T17:06:02.908Z,3.77
2023-03-18T17:08:31.116Z,3.73
2023-03-18T17:11:02.930Z,3.00
2023-03-18T17:13:33.706Z,2.63
2023-03-18T17:16:01.884Z,2.97
2023-03-18T17:18:30.160Z,3.03
2023-03-18T17:20:59.533Z,1.90
2023-03-18T17:23:29.073Z,2.57
2023-03-18T17:25:59.484Z,4.37
2023-03-18T17:28:34.448Z,2.60
2023-03-18T17:31:03.023Z,2.07
2023-03-18T17:33:33.172Z,3.47
2023-03-18T17:36:02.940Z,3.27
2023-03-18T17:38:32.214Z,3.97
2023-03-18T17:41:03.866Z,3.60
2023-03-18T17:43:33.967Z,4.88
2023-03-18T17:46:03.630Z,3.33
2023-03-18T17:48:33.428Z,4.40
2023-03-18T17:51:05.217Z,4.17
2023-03-18T17:53:37.114Z,5.57
2023-03-18T17:56:06.188Z,3.17
2023-03-18T17:58:35.418Z,5.60
2023-03-18T18:01:06.886Z,4.23
2023-03-18T18:03:36.799Z,4.27
2023-03-18T18:06:06.761Z,6.63
2023-03-18T18:08:36.137Z,3.37
2023-03-18T18:11:17.784Z,4.03
2023-03-18T18:13:45.886Z,2.87
2023-03-18T18:16:14.455Z,5.13
2023-03-18T18:18:42.625Z,4.60
2023-03-18T18:21:15.537Z,5.33
2023-03-18T18:23:45.271Z,4.50
2023-03-18T18:26:15.783Z,5.53
2023-03-18T18:28:45.519Z,4.90
2023-03-18T18:31:14.570Z,4.67
2023-03-18T18:33:44.119Z,6.93
2023-03-18T18:36:14.838Z,5.37
2023-03-18T18:38:43.089Z,4.47
2023-03-18T18:41:11.470Z,3.97
2023-03-18T18:43:39.395Z,7.03
2023-03-18T18:46:14.561Z,8.07
2023-03-18T18:48:44.832Z,3.83
2023-03-18T18:51:18.160Z,5.47
2023-03-18T18:53:47.499Z,6.17
2023-03-18T18:56:18.745Z,4.80
2023-03-18T18:58:47.236Z,7.17
2023-03-18T19:01:16.058Z,4.60
2023-03-18T19:03:44.217Z,5.30
2023-03-18T19:06:27.202Z,7.03
2023-03-18T19:08:56.309Z,5.27
2023-03-18T19:11:24.997Z,6.97
2023-03-18T19:13:54.997Z,4.33
2023-03-18T19:16:30.112Z,4.10
2023-03-18T19:18:58.462Z,5.50
2023-03-18T19:21:28.045Z,4.33
2023-03-18T19:23:58.141Z,2.50
2023-03-18T19:26:27.005Z,1.97
2023-03-18T19:28:59.289Z,1.30
2023-03-18T19:31:30.593Z,0.97
2023-03-18T19:34:00.690Z,0.93
2023-03-18T19:36:32.040Z,1.00
2023-03-18T19:39:01.724Z,1.57
2023-03-18T19:41:30.218Z,0.70
2023-03-18T19:44:03.898Z,2.63
2023-03-18T19:46:38.465Z,1.40
2023-03-18T19:49:16.776Z,1.57
2023-03-18T19:51:46.859Z,1.13
2023-03-18T19:54:24.802Z,0.87
2023-03-18T19:57:00.954Z,1.50
2023-03-18T19:59:37.336Z,2.50
2023-03-18T20:02:19.768Z,1.63
2023-03-18T20:04:49.339Z,2.90
2023-03-18T20:07:20.088Z,1.80
2023-03-18T20:09:48.315Z,1.97
2023-03-18T20:12:23.680Z,1.40
2023-03-18T20:14:51.834Z,1.97
2023-03-18T20:17:33.238Z,1.97
2023-03-18T20:20:01.446Z,2.07
2023-03-18T20:22:33.862Z,2.23
2023-03-18T20:25:02.181Z,2.17
2023-03-18T20:27:31.498Z,1.77
2023-03-18T20:29:59.498Z,1.20
2023-03-18T20:32:27.628Z,1.63
2023-03-18T20:34:55.706Z,1.30
2023-03-18T20:37:29.580Z,2.23
2023-03-18T20:39:58.969Z,1.40
2023-03-18T20:42:27.200Z,1.20
2023-03-18T20:44:55.258Z,1.87
2023-03-18T20:47:23.300Z,1.00
2023-03-18T20:49:51.217Z,2.90
2023-03-18T20:52:25.783Z,1.63
2023-03-18T20:54:53.880Z,1.93
2023-03-18T20:57:23.158Z,1.30
2023-03-18T20:59:51.413Z,1.93
2023-03-18T21:02:28.864Z,3.77
2023-03-18T21:04:57.476Z,2.60
2023-03-18T21:07:26.092Z,3.00
2023-03-18T21:09:54.372Z,3.03
2023-03-18T21:12:23.828Z,1.70
2023-03-18T21:14:51.900Z,2.70
2023-03-18T21:17:21.023Z,3.03
2023-03-18T21:19:49.737Z,1.70
2023-03-18T21:22:22.561Z,3.33
2023-03-18T21:24:50.918Z,2.07
2023-03-18T21:27:23.616Z,1.90
2023-03-18T21:29:53.939Z,2.00
2023-03-18T21:32:24.285Z,1.80
2023-03-18T21:34:53.168Z,2.70
2023-03-18T21:37:23.123Z,1.83
2023-03-18T21:39:51.580Z,2.20
2023-03-18T21:42:22.998Z,2.43
2023-03-18T21:44:52.708Z,3.07
2023-03-18T21:47:22.684Z,2.17
2023-03-18T21:49:51.453Z,3.33
2023-03-18T21:52:23.353Z,2.27
2023-03-18T21:54:51.348Z,3.40
2023-03-18T21:57:21.990Z,1.70
2023-03-18T21:59:50.217Z,1.53
2023-03-18T22:02:30.610Z,2.17
2023-03-18T22:05:00.183Z,1.97
2023-03-18T22:07:29.714Z,1.60
2023-03-18T22:09:58.316Z,2.50
2023-03-18T22:12:28.573Z,2.13
2023-03-18T22:14:57.059Z,2.23
2023-03-18T22:17:27.074Z,2.00
2023-03-18T22:19:57.381Z,1.90
2023-03-18T22:22:29.293Z,4.90
2023-03-18T22:24:57.172Z,3.53
2023-03-18T22:27:26.676Z,1.97
2023-03-18T22:29:56.234Z,1.80
2023-03-18T22:32:34.301Z,2.80
2023-03-18T22:35:04.285Z,2.83
2023-03-18T22:37:32.245Z,2.40
2023-03-18T22:40:01.175Z,1.60
2023-03-18T22:42:29.397Z,3.10
2023-03-18T22:44:57.557Z,2.40
2023-03-18T22:47:26.939Z,2.20
2023-03-18T22:49:54.901Z,1.97
2023-03-18T22:52:27.821Z,2.50
2023-03-18T22:54:59.097Z,2.63
2023-03-18T22:57:28.159Z,1.73
2023-03-18T22:59:58.165Z,1.63
2023-03-18T23:02:28.772Z,2.83
2023-03-18T23:04:57.365Z,2.67
2023-03-18T23:07:29.722Z,3.30
2023-03-18T23:09:59.211Z,1.60
2023-03-18T23:12:30.169Z,1.77
2023-03-18T23:14:58.848Z,1.40
2023-03-18T23:17:29.107Z,2.00
2023-03-18T23:19:57.727Z,2.37
2023-03-18T23:22:29.772Z,2.50
2023-03-18T23:24:58.115Z,2.50
2023-03-18T23:27:27.860Z,2.10
2023-03-18T23:29:56.787Z,3.40
2023-03-18T23:32:25.212Z,2.37
2023-03-18T23:34:53.582Z,2.73
2023-03-18T23:37:21.845Z,2.27
2023-03-18T23:39:51.082Z,2.20
2023-03-18T23:42:20.368Z,3.40
2023-03-18T23:44:48.481Z,2.20
2023-03-18T23:47:16.938Z,3.10
2023-03-18T23:49:44.843Z,3.17
2023-03-18T23:52:14.783Z,2.90
2023-03-18T23:54:42.912Z,3.27
2023-03-18T23:57:12.974Z,3.13
2023-03-18T23:59:41.157Z,3.43
